createdAt,value
2018-12-01T00:01:01.352Z,7.00
2018-12-01T00:02:05.456Z,6.90
2018-12-01T00:03:09.031Z,6.90
2018-12-01T00:04:12.609Z,6.90
2018-12-01T00:05:16.185Z,6.80
2018-12-01T00:06:19.839Z,6.80
2018-12-01T00:07:23.430Z,6.80
2018-12-01T00:08:26.992Z,6.70
2018-12-01T00:09:30.557Z,6.70
2018-12-01T00:10:34.128Z,6.70
2018-12-01T00:11:37.689Z,6.60
2018-12-01T00:12:41.266Z,6.60
2018-12-01T00:13:45.830Z,6.60
2018-12-01T00:14:49.468Z,6.60
2018-12-01T00:15:53.038Z,6.50
2018-12-01T00:16:56.605Z,6.50
2018-12-01T00:18:00.255Z,6.40
2018-12-01T00:19:03.793Z,6.40
2018-12-01T00:20:11.411Z,6.40
2018-12-01T00:21:15.019Z,6.40
2018-12-01T00:22:18.609Z,6.30
2018-12-01T00:23:22.168Z,6.30
2018-12-01T00:24:25.754Z,6.30
2018-12-01T00:25:29.340Z,6.30
2018-12-01T00:26:32.944Z,6.20
2018-12-01T00:27:36.472Z,6.20
2018-12-01T00:28:40.153Z,6.20
2018-12-01T00:29:43.700Z,6.20
2018-12-01T00:30:47.277Z,6.20
2018-12-01T00:31:50.845Z,6.20
2018-12-01T00:32:55.534Z,6.10
2018-12-01T00:33:59.108Z,6.10
2018-12-01T00:35:02.714Z,6.10
2018-12-01T00:36:06.410Z,6.10
2018-12-01T00:37:10.001Z,6.10
2018-12-01T00:38:13.577Z,6.10
2018-12-01T00:39:17.157Z,6.10
2018-12-01T00:40:21.391Z,6.10
2018-12-01T00:41:24.957Z,6.10
2018-12-01T00:42:28.529Z,6.00
2018-12-01T00:43:32.140Z,6.00
2018-12-01T00:44:35.706Z,6.00
2018-12-01T00:45:39.273Z,6.00
2018-12-01T00:46:42.851Z,6.00
2018-12-01T00:47:48.464Z,6.00
2018-12-01T00:48:52.042Z,6.00
2018-12-01T00:49:55.612Z,6.00
2018-12-01T00:50:59.178Z,6.10
2018-12-01T00:52:02.740Z,6.10
2018-12-01T00:53:06.393Z,6.10
2018-12-01T00:54:09.989Z,6.10
2018-12-01T00:55:20.508Z,6.10
2018-12-01T00:56:24.080Z,6.10
2018-12-01T00:57:27.677Z,6.00
2018-12-01T00:58:31.236Z,6.00
2018-12-01T00:59:34.813Z,6.00
2018-12-01T01:00:38.387Z,6.00
2018-12-01T01:01:41.954Z,6.00
2018-12-01T01:02:51.033Z,6.00
2018-12-01T01:03:54.710Z,6.00
2018-12-01T01:04:58.250Z,6.00
2018-12-01T01:06:01.821Z,6.00
2018-12-01T01:07:05.384Z,6.00
2018-12-01T01:08:08.957Z,6.00
2018-12-01T01:09:12.536Z,6.00
2018-12-01T01:10:16.129Z,6.00
2018-12-01T01:11:19.697Z,5.90
2018-12-01T01:12:23.280Z,5.90
2018-12-01T01:13:26.920Z,5.90
2018-12-01T01:14:30.510Z,5.90
2018-12-01T01:15:34.042Z,5.90
2018-12-01T01:16:37.613Z,5.90
2018-12-01T01:17:41.216Z,5.90
2018-12-01T01:18:44.781Z,5.90
2018-12-01T01:19:48.358Z,5.90
2018-12-01T01:20:51.933Z,5.90
2018-12-01T01:21:55.529Z,5.90
2018-12-01T01:22:59.131Z,5.90
2018-12-01T01:24:02.662Z,6.00
2018-12-01T01:25:07.447Z,6.00
2018-12-01T01:26:11.729Z,6.00
2018-12-01T01:27:15.329Z,6.10
2018-12-01T01:28:18.890Z,6.10
2018-12-01T01:29:22.484Z,6.10
2018-12-01T01:30:26.053Z,6.10
2018-12-01T01:31:29.657Z,6.20
2018-12-01T01:32:33.288Z,6.10
2018-12-01T01:33:36.825Z,6.10
2018-12-01T01:34:40.409Z,6.10
2018-12-01T01:35:43.985Z,6.10
2018-12-01T01:36:47.550Z,6.10
2018-12-01T01:37:51.121Z,6.10
2018-12-01T01:38:54.689Z,6.10
2018-12-01T01:39:58.318Z,6.10
2018-12-01T01:41:06.836Z,6.00
2018-12-01T01:42:10.421Z,6.00
2018-12-01T01:43:13.991Z,6.00
2018-12-01T01:44:17.597Z,6.00
2018-12-01T01:45:21.184Z,6.00
2018-12-01T01:46:24.754Z,6.00
2018-12-01T01:47:28.312Z,6.00
2018-12-01T01:48:31.877Z,6.00
2018-12-01T01:49:35.449Z,5.90
2018-12-01T01:50:39.137Z,5.90
2018-12-01T01:51:42.682Z,5.90
2018-12-01T01:52:46.279Z,5.90
2018-12-01T01:53:49.844Z,5.90
2018-12-01T01:54:53.402Z,5.90
2018-12-01T01:55:57.005Z,5.90
2018-12-01T01:57:00.565Z,5.90
2018-12-01T01:58:04.142Z,5.90
2018-12-01T01:59:07.717Z,5.90
2018-12-01T02:00:14.587Z,5.80
2018-12-01T02:01:18.157Z,5.80
2018-12-01T02:02:21.724Z,5.80
2018-12-01T02:03:25.304Z,5.80
2018-12-01T02:04:28.885Z,5.80
2018-12-01T02:05:32.474Z,5.80
2018-12-01T02:06:36.167Z,5.80
2018-12-01T02:07:39.717Z,5.70
2018-12-01T02:08:43.309Z,5.70
2018-12-01T02:09:46.897Z,5.70
2018-12-01T02:10:50.496Z,5.70
2018-12-01T02:11:54.089Z,5.70
2018-12-01T02:12:57.674Z,5.70
2018-12-01T02:14:01.262Z,5.70
2018-12-01T02:15:05.802Z,5.70
2018-12-01T02:16:09.401Z,5.70
2018-12-01T02:17:12.984Z,5.70
2018-12-01T02:18:16.584Z,5.70
2018-12-01T02:19:20.277Z,5.70
2018-12-01T02:20:23.853Z,5.70
2018-12-01T02:21:27.462Z,5.70
2018-12-01T02:22:31.069Z,5.70
2018-12-01T02:23:34.653Z,5.70
2018-12-01T02:24:38.331Z,5.70
2018-12-01T02:25:41.893Z,5.70
2018-12-01T02:26:45.473Z,5.70
2018-12-01T02:27:49.057Z,5.70
2018-12-01T02:28:52.698Z,5.80
2018-12-01T02:29:56.283Z,5.70
2018-12-01T02:30:59.854Z,5.80
2018-12-01T02:32:03.439Z,5.70
2018-12-01T02:33:07.025Z,5.70
2018-12-01T02:34:10.610Z,5.70
2018-12-01T02:35:17.305Z,5.70
2018-12-01T02:36:20.869Z,5.70
2018-12-01T02:37:24.450Z,5.70
2018-12-01T02:38:28.033Z,5.70
2018-12-01T02:39:31.618Z,5.70
2018-12-01T02:40:35.204Z,5.70
2018-12-01T02:41:38.796Z,5.70
2018-12-01T02:42:43.049Z,5.70
2018-12-01T02:43:56.955Z,5.70
2018-12-01T02:45:12.169Z,5.80
2018-12-01T02:46:27.202Z,5.80
2018-12-01T02:47:30.797Z,5.90
2018-12-01T02:48:34.383Z,5.90
2018-12-01T02:49:37.975Z,5.90
2018-12-01T02:50:41.562Z,6.00
2018-12-01T02:51:45.174Z,6.00
2018-12-01T02:52:48.850Z,6.10
2018-12-01T02:53:52.408Z,6.10
2018-12-01T02:54:55.994Z,6.20
2018-12-01T02:55:59.590Z,6.20
2018-12-01T02:57:03.181Z,6.30
2018-12-01T02:58:06.766Z,6.30
2018-12-01T02:59:10.377Z,6.40
2018-12-01T03:00:13.986Z,6.40
2018-12-01T03:01:17.549Z,6.50
2018-12-01T03:02:21.165Z,6.50
2018-12-01T03:03:24.729Z,6.50
2018-12-01T03:04:28.313Z,6.50
2018-12-01T03:05:31.910Z,6.50
2018-12-01T03:06:35.485Z,6.50
2018-12-01T03:07:39.094Z,6.50
2018-12-01T03:08:42.686Z,6.50
2018-12-01T03:09:46.296Z,6.50
2018-12-01T03:10:49.884Z,6.50
2018-12-01T03:11:53.444Z,6.50
2018-12-01T03:12:57.045Z,6.50
2018-12-01T03:14:00.625Z,6.50
2018-12-01T03:15:04.645Z,6.50
2018-12-01T03:16:08.235Z,6.50
2018-12-01T03:17:11.817Z,6.50
2018-12-01T03:18:15.405Z,6.50
2018-12-01T03:19:18.988Z,6.50
2018-12-01T03:20:22.611Z,6.50
2018-12-01T03:21:26.163Z,6.50
2018-12-01T03:22:29.789Z,6.50
2018-12-01T03:23:33.346Z,6.50
2018-12-01T03:24:36.918Z,6.50
2018-12-01T03:25:40.497Z,6.60
2018-12-01T03:26:44.069Z,6.60
2018-12-01T03:27:48.462Z,6.60
2018-12-01T03:28:52.033Z,6.70
2018-12-01T03:29:55.642Z,6.70
2018-12-01T03:30:59.188Z,6.80
2018-12-01T03:32:02.769Z,6.80
2018-12-01T03:33:06.409Z,6.80
2018-12-01T03:34:09.945Z,6.90
2018-12-01T03:35:13.955Z,6.90
2018-12-01T03:36:17.590Z,6.90
2018-12-01T03:37:21.140Z,7.00
2018-12-01T03:38:24.713Z,7.00
2018-12-01T03:39:28.293Z,7.10
2018-12-01T03:40:37.321Z,7.20
2018-12-01T03:41:40.893Z,7.20
2018-12-01T03:42:44.645Z,7.20
2018-12-01T03:43:48.252Z,7.20
2018-12-01T03:44:51.804Z,7.30
2018-12-01T03:45:55.376Z,7.30
2018-12-01T03:46:58.943Z,7.40
2018-12-01T03:48:02.512Z,7.40
2018-12-01T03:49:06.109Z,7.40
2018-12-01T03:50:18.952Z,7.40
2018-12-01T03:51:22.602Z,7.40
2018-12-01T03:52:26.292Z,7.50
2018-12-01T03:53:29.841Z,7.50
2018-12-01T03:54:33.421Z,7.50
2018-12-01T03:55:36.989Z,7.50
2018-12-01T03:56:40.556Z,7.60
2018-12-01T03:57:44.145Z,7.60
2018-12-01T03:58:47.717Z,7.60
2018-12-01T03:59:51.305Z,7.60
2018-12-01T04:00:54.920Z,7.60
2018-12-01T04:01:58.508Z,7.60
2018-12-01T04:03:02.914Z,7.60
2018-12-01T04:04:06.532Z,7.60
2018-12-01T04:05:10.106Z,7.70
2018-12-01T04:06:13.672Z,7.70
2018-12-01T04:07:17.252Z,7.70
2018-12-01T04:08:20.828Z,7.70
2018-12-01T04:09:24.644Z,7.70
2018-12-01T04:10:28.218Z,7.70
2018-12-01T04:11:31.793Z,7.80
2018-12-01T04:12:35.370Z,7.70
2018-12-01T04:13:38.949Z,7.70
2018-12-01T04:14:42.526Z,7.70
2018-12-01T04:15:46.098Z,7.80
2018-12-01T04:16:49.686Z,7.80
2018-12-01T04:17:53.274Z,7.80
2018-12-01T04:18:56.844Z,7.80
2018-12-01T04:20:00.424Z,7.80
2018-12-01T04:21:04.052Z,7.80
2018-12-01T04:22:07.597Z,7.80
2018-12-01T04:23:11.160Z,7.80
2018-12-01T04:24:14.754Z,7.80
2018-12-01T04:25:18.337Z,7.80
2018-12-01T04:26:21.908Z,7.80
2018-12-01T04:27:25.493Z,7.80
2018-12-01T04:28:29.185Z,7.80
2018-12-01T04:29:32.773Z,7.80
2018-12-01T04:30:36.321Z,7.80
2018-12-01T04:31:39.893Z,7.80
2018-12-01T04:32:43.469Z,7.80
2018-12-01T04:33:47.037Z,7.80
2018-12-01T04:34:50.629Z,7.80
2018-12-01T04:35:54.218Z,7.80
2018-12-01T04:36:57.794Z,7.80
2018-12-01T04:38:01.396Z,7.80
2018-12-01T04:39:07.239Z,7.80
2018-12-01T04:40:10.829Z,7.80
2018-12-01T04:41:14.385Z,7.80
2018-12-01T04:42:17.952Z,7.80
2018-12-01T04:43:21.529Z,7.80
2018-12-01T04:44:25.114Z,7.70
2018-12-01T04:45:28.781Z,7.80
2018-12-01T04:46:32.332Z,7.80
2018-12-01T04:47:35.915Z,7.70
2018-12-01T04:48:39.554Z,7.70
2018-12-01T04:49:43.125Z,7.70
2018-12-01T04:50:46.680Z,7.70
2018-12-01T04:51:50.257Z,7.70
2018-12-01T04:52:53.830Z,7.70
2018-12-01T04:53:57.407Z,7.70
2018-12-01T04:55:00.998Z,7.70
2018-12-01T04:56:04.683Z,7.60
2018-12-01T04:57:08.230Z,7.60
2018-12-01T04:58:11.797Z,7.60
2018-12-01T04:59:15.372Z,7.60
2018-12-01T05:00:19.757Z,7.60
2018-12-01T05:01:23.324Z,7.60
2018-12-01T05:02:26.900Z,7.60
2018-12-01T05:03:30.494Z,7.60
2018-12-01T05:04:34.066Z,7.50
2018-12-01T05:05:37.652Z,7.50
2018-12-01T05:06:41.241Z,7.60
2018-12-01T05:07:44.894Z,7.50
2018-12-01T05:08:49.403Z,7.50
2018-12-01T05:09:52.001Z,7.50
2018-12-01T05:10:55.582Z,7.50
2018-12-01T05:11:59.161Z,7.50
2018-12-01T05:13:02.726Z,7.40
2018-12-01T05:14:06.318Z,7.40
2018-12-01T05:15:11.866Z,7.40
2018-12-01T05:16:15.451Z,7.40
2018-12-01T05:17:19.049Z,7.40
2018-12-01T05:18:22.619Z,7.40
2018-12-01T05:19:26.184Z,7.40
2018-12-01T05:20:29.757Z,7.40
2018-12-01T05:21:33.414Z,7.30
2018-12-01T05:22:36.997Z,7.40
2018-12-01T05:23:40.633Z,7.40
2018-12-01T05:24:44.229Z,7.40
2018-12-01T05:25:47.875Z,7.40
2018-12-01T05:26:51.441Z,7.40
2018-12-01T05:27:55.051Z,7.30
2018-12-01T05:28:58.624Z,7.30
2018-12-01T05:30:02.237Z,7.30
2018-12-01T05:31:05.817Z,7.30
2018-12-01T05:32:09.397Z,7.30
2018-12-01T05:33:12.981Z,7.30
2018-12-01T05:34:16.586Z,7.30
2018-12-01T05:35:21.520Z,7.30
2018-12-01T05:36:25.094Z,7.30
2018-12-01T05:37:28.674Z,7.40
2018-12-01T05:38:32.262Z,7.40
2018-12-01T05:39:35.856Z,7.40
2018-12-01T05:40:39.478Z,7.40
2018-12-01T05:41:43.164Z,7.30
2018-12-01T05:42:46.722Z,7.40
2018-12-01T05:43:50.321Z,7.40
2018-12-01T05:44:53.911Z,7.40
2018-12-01T05:45:57.493Z,7.40
2018-12-01T05:47:01.088Z,7.40
2018-12-01T05:48:05.001Z,7.40
2018-12-01T05:49:08.581Z,7.40
2018-12-01T05:50:13.016Z,7.40
2018-12-01T05:51:16.584Z,7.40
2018-12-01T05:52:20.181Z,7.40
2018-12-01T05:53:23.790Z,7.30
2018-12-01T05:54:27.477Z,7.40
2018-12-01T05:55:31.067Z,7.30
2018-12-01T05:56:34.674Z,7.40
2018-12-01T05:57:38.269Z,7.30
2018-12-01T05:58:41.853Z,7.30
2018-12-01T05:59:45.493Z,7.30
2018-12-01T06:00:49.076Z,7.30
2018-12-01T06:01:52.678Z,7.40
2018-12-01T06:02:56.301Z,7.30
2018-12-01T06:03:59.892Z,7.40
2018-12-01T06:05:03.573Z,7.30
2018-12-01T06:06:07.158Z,7.30
2018-12-01T06:07:10.741Z,7.30
2018-12-01T06:08:14.325Z,7.30
2018-12-01T06:09:17.976Z,7.30
2018-12-01T06:10:22.297Z,7.30
2018-12-01T06:11:25.842Z,7.30
2018-12-01T06:12:29.437Z,7.30
2018-12-01T06:13:33.035Z,7.30
2018-12-01T06:14:36.626Z,7.30
2018-12-01T06:15:40.209Z,7.30
2018-12-01T06:16:43.902Z,7.30
2018-12-01T06:17:47.470Z,7.30
2018-12-01T06:18:51.276Z,7.30
2018-12-01T06:19:54.861Z,7.30
2018-12-01T06:20:58.445Z,7.40
2018-12-01T06:22:02.025Z,7.30
2018-12-01T06:23:05.875Z,7.30
2018-12-01T06:24:09.454Z,7.30
2018-12-01T06:25:14.248Z,7.30
2018-12-01T06:26:17.822Z,7.30
2018-12-01T06:27:21.409Z,7.30
2018-12-01T06:28:24.992Z,7.30
2018-12-01T06:29:28.570Z,7.30
2018-12-01T06:30:32.150Z,7.40
2018-12-01T06:31:35.737Z,7.40
2018-12-01T06:32:39.491Z,7.30
2018-12-01T06:33:43.069Z,7.40
2018-12-01T06:34:46.641Z,7.30
2018-12-01T06:35:50.213Z,7.30
2018-12-01T06:36:53.794Z,7.40
2018-12-01T06:37:57.385Z,7.30
2018-12-01T06:39:01.037Z,7.30
2018-12-01T06:40:07.277Z,7.30
2018-12-01T06:41:10.853Z,7.30
2018-12-01T06:42:14.469Z,7.30
2018-12-01T06:43:18.013Z,7.30
2018-12-01T06:44:21.595Z,7.30
2018-12-01T06:45:25.168Z,7.40
2018-12-01T06:46:28.737Z,7.40
2018-12-01T06:47:32.313Z,7.40
2018-12-01T06:48:35.894Z,7.40
2018-12-01T06:49:39.477Z,7.40
2018-12-01T06:50:43.090Z,7.40
2018-12-01T06:51:46.642Z,7.40
2018-12-01T06:52:51.193Z,7.40
2018-12-01T06:53:54.770Z,7.40
2018-12-01T06:54:58.362Z,7.40
2018-12-01T06:56:01.963Z,7.40
2018-12-01T06:57:05.548Z,7.40
2018-12-01T06:58:09.121Z,7.40
2018-12-01T06:59:12.697Z,7.50
2018-12-01T07:00:18.462Z,7.40
2018-12-01T07:01:22.043Z,7.50
2018-12-01T07:02:25.658Z,7.40
2018-12-01T07:03:29.234Z,7.40
2018-12-01T07:04:32.797Z,7.40
2018-12-01T07:05:36.430Z,7.50
2018-12-01T07:06:39.966Z,7.40
2018-12-01T07:07:43.545Z,7.50
2018-12-01T07:08:47.121Z,7.50
2018-12-01T07:09:50.697Z,7.50
2018-12-01T07:10:54.277Z,7.50
2018-12-01T07:11:57.866Z,7.50
2018-12-01T07:13:02.479Z,7.50
2018-12-01T07:14:06.978Z,7.60
2018-12-01T07:15:12.514Z,7.60
2018-12-01T07:16:16.088Z,7.60
2018-12-01T07:17:19.709Z,7.60
2018-12-01T07:18:34.751Z,7.60
2018-12-01T07:19:38.326Z,7.60
2018-12-01T07:20:41.901Z,7.60
2018-12-01T07:21:45.529Z,7.60
2018-12-01T07:22:49.142Z,7.60
2018-12-01T07:23:52.823Z,7.60
2018-12-01T07:24:56.378Z,7.60
2018-12-01T07:25:59.983Z,7.60
2018-12-01T07:27:03.561Z,7.60
2018-12-01T07:28:07.153Z,7.60
2018-12-01T07:29:10.741Z,7.60
2018-12-01T07:30:14.976Z,7.70
2018-12-01T07:31:18.598Z,7.70
2018-12-01T07:32:22.189Z,7.70
2018-12-01T07:33:26.380Z,7.70
2018-12-01T07:34:29.443Z,7.70
2018-12-01T07:35:32.993Z,7.70
2018-12-01T07:36:36.596Z,7.70
2018-12-01T07:37:40.529Z,7.70
2018-12-01T07:38:44.135Z,7.70
2018-12-01T07:39:49.005Z,7.70
2018-12-01T07:40:52.662Z,7.70
2018-12-01T07:41:56.317Z,7.70
2018-12-01T07:42:59.909Z,7.70
2018-12-01T07:44:03.472Z,7.70
2018-12-01T07:45:11.495Z,7.70
2018-12-01T07:46:15.081Z,7.70
2018-12-01T07:47:18.645Z,7.80
2018-12-01T07:48:22.252Z,7.80
2018-12-01T07:49:25.836Z,7.80
2018-12-01T07:50:29.421Z,7.80
2018-12-01T07:51:33.015Z,7.80
2018-12-01T07:52:36.600Z,7.80
2018-12-01T07:53:40.206Z,7.80
2018-12-01T07:54:43.800Z,7.80
2018-12-01T07:55:47.389Z,7.80
2018-12-01T07:56:50.969Z,7.80
2018-12-01T07:57:54.562Z,7.90
2018-12-01T07:58:58.172Z,7.90
2018-12-01T08:00:01.761Z,7.90
2018-12-01T08:01:05.654Z,7.90
2018-12-01T08:02:09.346Z,7.90
2018-12-01T08:03:12.937Z,8.00
2018-12-01T08:04:16.501Z,8.00
2018-12-01T08:05:20.088Z,8.00
2018-12-01T08:06:23.688Z,8.00
2018-12-01T08:07:27.277Z,8.00
2018-12-01T08:08:30.865Z,8.10
2018-12-01T08:09:34.458Z,8.10
2018-12-01T08:10:38.044Z,8.10
2018-12-01T08:11:41.661Z,8.20
2018-12-01T08:12:45.213Z,8.20
2018-12-01T08:13:48.824Z,8.20
2018-12-01T08:14:52.418Z,8.20
2018-12-01T08:15:56.009Z,8.30
2018-12-01T08:16:59.597Z,8.30
2018-12-01T08:18:03.213Z,8.40
2018-12-01T08:19:06.825Z,8.40
2018-12-01T08:20:11.394Z,8.40
2018-12-01T08:21:14.977Z,8.50
2018-12-01T08:22:18.562Z,8.60
2018-12-01T08:23:22.144Z,8.60
2018-12-01T08:24:25.768Z,8.60
2018-12-01T08:25:29.311Z,8.70
2018-12-01T08:26:32.887Z,8.70
2018-12-01T08:27:36.463Z,8.70
2018-12-01T08:28:40.033Z,8.70
2018-12-01T08:29:43.629Z,8.70
2018-12-01T08:30:47.209Z,8.70
2018-12-01T08:31:50.914Z,8.70
2018-12-01T08:32:54.594Z,8.70
2018-12-01T08:33:58.183Z,8.70
2018-12-01T08:35:01.745Z,8.70
2018-12-01T08:36:05.334Z,8.70
2018-12-01T08:37:08.892Z,8.60
2018-12-01T08:38:12.475Z,8.60
2018-12-01T08:39:16.065Z,8.60
2018-12-01T08:40:21.249Z,8.60
2018-12-01T08:41:24.822Z,8.70
2018-12-01T08:42:28.394Z,8.60
2018-12-01T08:43:31.965Z,8.60
2018-12-01T08:44:35.573Z,8.60
2018-12-01T08:45:39.149Z,8.60
2018-12-01T08:46:42.733Z,8.60
2018-12-01T08:47:46.323Z,8.60
2018-12-01T08:48:49.895Z,8.60
2018-12-01T08:49:53.493Z,8.60
2018-12-01T08:50:57.213Z,8.70
2018-12-01T08:52:00.792Z,8.70
2018-12-01T08:53:04.668Z,8.70
2018-12-01T08:54:08.241Z,8.70
2018-12-01T08:55:13.165Z,8.80
2018-12-01T08:56:16.742Z,8.80
2018-12-01T08:57:20.345Z,8.80
2018-12-01T08:58:23.935Z,8.80
2018-12-01T08:59:27.473Z,8.90
2018-12-01T09:00:34.179Z,8.90
2018-12-01T09:01:37.761Z,9.00
2018-12-01T09:02:41.361Z,9.00
2018-12-01T09:03:44.959Z,9.00
2018-12-01T09:04:48.549Z,9.00
2018-12-01T09:05:52.743Z,9.10
2018-12-01T09:06:56.345Z,9.10
2018-12-01T09:07:59.935Z,9.10
2018-12-01T09:09:04.538Z,9.10
2018-12-01T09:10:09.361Z,9.20
2018-12-01T09:11:12.959Z,9.20
2018-12-01T09:12:16.518Z,9.30
2018-12-01T09:13:20.097Z,9.50
2018-12-01T09:14:23.693Z,9.70
2018-12-01T09:15:27.275Z,9.80
2018-12-01T09:16:30.863Z,10.00
2018-12-01T09:17:34.502Z,10.30
2018-12-01T09:18:38.050Z,10.50
2018-12-01T09:19:41.681Z,10.70
2018-12-01T09:20:45.241Z,10.80
2018-12-01T09:21:48.825Z,10.80
2018-12-01T09:22:52.413Z,10.80
2018-12-01T09:23:55.989Z,10.80
2018-12-01T09:24:59.571Z,10.70
2018-12-01T09:26:03.169Z,10.60
2018-12-01T09:27:06.773Z,10.60
2018-12-01T09:28:10.421Z,10.60
2018-12-01T09:29:14.100Z,10.50
2018-12-01T09:30:20.046Z,10.50
2018-12-01T09:31:23.660Z,10.50
2018-12-01T09:32:27.330Z,10.60
2018-12-01T09:33:30.916Z,10.80
2018-12-01T09:34:34.465Z,10.90
2018-12-01T09:35:38.075Z,11.10
2018-12-01T09:36:41.629Z,11.30
2018-12-01T09:37:45.204Z,11.60
2018-12-01T09:38:48.774Z,12.10
2018-12-01T09:39:52.354Z,12.60
2018-12-01T09:40:55.933Z,13.10
2018-12-01T09:41:59.538Z,13.40
2018-12-01T09:43:03.127Z,13.70
2018-12-01T09:44:06.671Z,14.00
2018-12-01T09:45:13.169Z,14.30
2018-12-01T09:46:16.748Z,14.60
2018-12-01T09:47:20.325Z,14.70
2018-12-01T09:48:23.901Z,14.60
2018-12-01T09:49:27.481Z,14.60
2018-12-01T09:50:31.053Z,14.60
2018-12-01T09:51:34.640Z,14.60
2018-12-01T09:52:38.208Z,14.80
2018-12-01T09:53:41.781Z,15.10
2018-12-01T09:54:45.377Z,15.10
2018-12-01T09:55:48.957Z,15.00
2018-12-01T09:56:52.545Z,15.00
2018-12-01T09:57:56.657Z,14.80
2018-12-01T09:59:00.229Z,14.80
2018-12-01T10:00:06.469Z,14.60
2018-12-01T10:01:10.041Z,14.40
2018-12-01T10:02:13.625Z,14.30
2018-12-01T10:03:17.197Z,14.20
2018-12-01T10:04:20.793Z,14.10
2018-12-01T10:05:24.464Z,14.00
2018-12-01T10:06:28.050Z,13.80
2018-12-01T10:07:31.624Z,13.50
2018-12-01T10:08:35.192Z,13.40
2018-12-01T10:09:38.826Z,13.30
2018-12-01T10:10:42.385Z,13.20
2018-12-01T10:11:50.479Z,13.10
2018-12-01T10:12:50.604Z,13.00
2018-12-01T10:13:54.180Z,12.90
2018-12-01T10:14:57.801Z,12.70
2018-12-01T10:16:01.357Z,12.50
2018-12-01T10:17:04.941Z,12.40
2018-12-01T10:18:09.177Z,12.30
2018-12-01T10:19:12.754Z,12.20
2018-12-01T10:20:17.787Z,12.10
2018-12-01T10:21:21.367Z,12.00
2018-12-01T10:22:24.954Z,12.00
2018-12-01T10:23:28.553Z,12.00
2018-12-01T10:24:32.146Z,12.00
2018-12-01T10:25:35.729Z,11.90
2018-12-01T10:26:39.317Z,12.00
2018-12-01T10:27:42.932Z,11.90
2018-12-01T10:28:46.530Z,11.90
2018-12-01T10:29:50.070Z,11.90
2018-12-01T10:30:53.661Z,11.90
2018-12-01T10:31:57.236Z,11.80
2018-12-01T10:33:00.805Z,11.80
2018-12-01T10:34:04.782Z,11.70
2018-12-01T10:35:09.788Z,11.60
2018-12-01T10:36:13.397Z,11.50
2018-12-01T10:37:16.959Z,11.40
2018-12-01T10:38:20.529Z,11.30
2018-12-01T10:39:24.169Z,11.40
2018-12-01T10:40:27.721Z,11.40
2018-12-01T10:41:31.334Z,11.40
2018-12-01T10:42:34.905Z,11.40
2018-12-01T10:43:38.477Z,11.40
2018-12-01T10:44:42.120Z,11.40
2018-12-01T10:45:45.653Z,11.50
2018-12-01T10:46:49.236Z,11.50
2018-12-01T10:47:52.813Z,11.50
2018-12-01T10:48:56.391Z,11.60
2018-12-01T10:49:59.973Z,11.50
2018-12-01T10:51:03.558Z,11.50
2018-12-01T10:52:07.147Z,11.50
2018-12-01T10:53:10.738Z,11.50
2018-12-01T10:54:14.330Z,11.50
2018-12-01T10:55:25.704Z,11.50
2018-12-01T10:56:29.265Z,11.50
2018-12-01T10:57:32.837Z,11.70
2018-12-01T10:58:36.425Z,12.00
2018-12-01T10:59:39.997Z,12.30
2018-12-01T11:00:50.161Z,12.70
2018-12-01T11:01:59.329Z,13.20
2018-12-01T11:03:11.188Z,13.50
2018-12-01T11:04:20.205Z,13.70
2018-12-01T11:05:24.213Z,13.80
2018-12-01T11:06:27.981Z,13.70
2018-12-01T11:07:31.557Z,13.70
2018-12-01T11:08:35.140Z,13.60
2018-12-01T11:09:38.717Z,13.50
2018-12-01T11:10:42.495Z,13.40
2018-12-01T11:11:46.166Z,13.20
2018-12-01T11:12:49.772Z,13.10
2018-12-01T11:13:53.343Z,12.90
2018-12-01T11:14:56.926Z,12.80
2018-12-01T11:16:00.501Z,12.70
2018-12-01T11:17:04.074Z,12.60
2018-12-01T11:18:07.658Z,12.60
2018-12-01T11:19:11.237Z,12.50
2018-12-01T11:20:14.817Z,12.40
2018-12-01T11:21:18.407Z,12.30
2018-12-01T11:22:22.087Z,12.20
2018-12-01T11:23:25.675Z,12.10
2018-12-01T11:24:29.230Z,12.10
2018-12-01T11:25:32.822Z,12.00
2018-12-01T11:26:36.410Z,12.00
2018-12-01T11:27:40.021Z,11.90
2018-12-01T11:28:43.605Z,11.90
2018-12-01T11:29:47.207Z,11.90
2018-12-01T11:30:50.797Z,11.90
2018-12-01T11:31:54.501Z,11.90
2018-12-01T11:32:58.090Z,11.80
2018-12-01T11:34:01.657Z,11.80
2018-12-01T11:35:05.886Z,11.80
2018-12-01T11:36:09.479Z,11.90
2018-12-01T11:37:13.171Z,11.90
2018-12-01T11:38:16.725Z,12.00
2018-12-01T11:39:20.321Z,12.10
2018-12-01T11:40:23.910Z,12.10
2018-12-01T11:41:27.533Z,12.20
2018-12-01T11:42:31.097Z,12.30
2018-12-01T11:43:34.695Z,12.40
2018-12-01T11:44:38.292Z,12.60
2018-12-01T11:45:41.891Z,12.80
2018-12-01T11:46:45.472Z,13.00
2018-12-01T11:47:49.077Z,13.20
2018-12-01T11:48:52.677Z,13.30
2018-12-01T11:49:56.356Z,13.30
2018-12-01T11:50:59.948Z,13.40
2018-12-01T11:52:03.540Z,13.30
2018-12-01T11:53:07.131Z,13.30
2018-12-01T11:54:10.721Z,13.20
2018-12-01T11:55:15.634Z,13.20
2018-12-01T11:56:19.236Z,13.10
2018-12-01T11:57:22.833Z,13.10
2018-12-01T11:58:26.430Z,13.10
2018-12-01T11:59:30.022Z,13.10
2018-12-01T12:00:33.626Z,13.10
2018-12-01T12:01:37.225Z,13.00
2018-12-01T12:02:40.849Z,13.00
2018-12-01T12:03:44.440Z,13.10
2018-12-01T12:04:48.025Z,13.10
2018-12-01T12:05:51.613Z,13.10
2018-12-01T12:06:55.540Z,13.00
2018-12-01T12:08:25.006Z,13.00
2018-12-01T12:09:28.602Z,12.90
2018-12-01T12:10:32.188Z,12.70
2018-12-01T12:11:35.784Z,12.50
2018-12-01T12:12:39.385Z,12.40
2018-12-01T12:13:42.981Z,12.30
2018-12-01T12:14:51.961Z,12.10
2018-12-01T12:15:50.347Z,12.00
2018-12-01T12:16:53.967Z,11.90
2018-12-01T12:18:01.745Z,11.80
2018-12-01T12:19:05.702Z,11.70
2018-12-01T12:20:10.057Z,11.60
2018-12-01T12:21:13.679Z,11.60
2018-12-01T12:22:17.275Z,11.50
2018-12-01T12:23:20.868Z,11.40
2018-12-01T12:24:24.449Z,11.40
2018-12-01T12:25:28.029Z,11.40
2018-12-01T12:26:31.612Z,11.30
2018-12-01T12:27:35.299Z,11.30
2018-12-01T12:28:38.870Z,11.30
2018-12-01T12:29:42.446Z,11.20
2018-12-01T12:30:46.033Z,11.20
2018-12-01T12:31:49.788Z,11.20
2018-12-01T12:32:53.253Z,11.10
2018-12-01T12:33:56.820Z,11.10
2018-12-01T12:35:00.394Z,11.00
2018-12-01T12:36:03.984Z,11.10
2018-12-01T12:37:07.569Z,11.10
2018-12-01T12:38:11.160Z,11.00
2018-12-01T12:39:14.733Z,11.00
2018-12-01T12:40:23.181Z,11.00
2018-12-01T12:41:26.788Z,10.90
2018-12-01T12:42:30.325Z,10.90
2018-12-01T12:43:33.908Z,10.90
2018-12-01T12:44:37.493Z,10.80
2018-12-01T12:45:41.061Z,10.80
2018-12-01T12:46:44.642Z,10.80
2018-12-01T12:47:48.226Z,10.80
2018-12-01T12:48:51.805Z,10.80
2018-12-01T12:49:55.388Z,10.80
2018-12-01T12:50:58.996Z,10.80
2018-12-01T12:52:02.542Z,10.90
2018-12-01T12:53:06.137Z,10.90
2018-12-01T12:54:09.719Z,10.90
2018-12-01T12:55:15.192Z,10.90
2018-12-01T12:56:18.774Z,10.90
2018-12-01T12:57:22.353Z,10.90
2018-12-01T12:58:25.928Z,10.90
2018-12-01T12:59:29.516Z,10.90
2018-12-01T13:00:33.159Z,10.90
2018-12-01T13:01:36.701Z,10.90
2018-12-01T13:02:40.529Z,10.90
2018-12-01T13:03:44.110Z,10.90
2018-12-01T13:04:47.718Z,10.90
2018-12-01T13:05:51.309Z,10.90
2018-12-01T13:06:55.004Z,10.90
2018-12-01T13:07:58.545Z,10.90
2018-12-01T13:09:02.183Z,10.90
2018-12-01T13:10:09.772Z,10.90
2018-12-01T13:11:13.354Z,10.90
2018-12-01T13:12:16.937Z,10.90
2018-12-01T13:13:20.526Z,10.90
2018-12-01T13:14:24.127Z,11.00
2018-12-01T13:15:27.717Z,11.00
2018-12-01T13:16:31.277Z,11.00
2018-12-01T13:17:34.858Z,11.10
2018-12-01T13:18:38.428Z,11.10
2018-12-01T13:19:42.006Z,11.10
2018-12-01T13:20:46.593Z,11.20
2018-12-01T13:21:50.285Z,11.20
2018-12-01T13:22:57.037Z,11.20
2018-12-01T13:24:00.629Z,11.30
2018-12-01T13:25:04.638Z,11.30
2018-12-01T13:26:08.339Z,11.30
2018-12-01T13:27:11.905Z,11.30
2018-12-01T13:28:21.368Z,11.30
2018-12-01T13:29:24.939Z,11.30
2018-12-01T13:30:34.573Z,11.20
2018-12-01T13:31:38.253Z,11.20
2018-12-01T13:32:41.834Z,11.10
2018-12-01T13:33:45.752Z,11.00
2018-12-01T13:34:49.343Z,10.90
2018-12-01T13:35:53.241Z,10.80
2018-12-01T13:36:56.780Z,10.80
2018-12-01T13:38:00.366Z,10.70
2018-12-01T13:39:06.158Z,10.70
2018-12-01T13:40:11.997Z,10.70
2018-12-01T13:41:15.581Z,10.60
2018-12-01T13:42:19.163Z,10.60
2018-12-01T13:43:22.737Z,10.50
2018-12-01T13:44:26.318Z,10.50
2018-12-01T13:45:29.904Z,10.50
2018-12-01T13:46:33.504Z,10.50
2018-12-01T13:47:37.109Z,10.50
2018-12-01T13:48:40.685Z,10.50
2018-12-01T13:49:44.266Z,10.50
2018-12-01T13:50:47.909Z,10.40
2018-12-01T13:51:51.453Z,10.40
2018-12-01T13:52:58.282Z,10.40
2018-12-01T13:54:01.863Z,10.40
2018-12-01T13:55:06.352Z,10.40
2018-12-01T13:56:10.065Z,10.40
2018-12-01T13:57:13.650Z,10.30
2018-12-01T13:58:17.189Z,10.30
2018-12-01T13:59:20.774Z,10.30
2018-12-01T14:00:25.542Z,10.30
2018-12-01T14:01:29.138Z,10.30